createdAt,value
2022-10-24T00:01:22.965Z,13.94
2022-10-24T00:03:50.951Z,13.95
2022-10-24T00:06:20.004Z,13.98
2022-10-24T00:08:48.102Z,14.05
2022-10-24T00:11:28.230Z,14.06
2022-10-24T00:13:57.498Z,14.05
2022-10-24T00:16:25.415Z,14.08
2022-10-24T00:18:52.810Z,14.09
2022-10-24T00:21:21.390Z,14.13
2022-10-24T00:23:48.613Z,14.15
2022-10-24T00:26:16.802Z,14.11
2022-10-24T00:28:44.241Z,14.13
2022-10-24T00:31:19.512Z,14.16
2022-10-24T00:33:46.719Z,14.17
2022-10-24T00:36:18.199Z,14.15
2022-10-24T00:38:45.793Z,14.14
2022-10-24T00:41:26.117Z,14.14
2022-10-24T00:44:23.982Z,14.17
2022-10-24T00:46:51.049Z,14.15
2022-10-24T00:49:23.484Z,14.15
2022-10-24T00:51:57.501Z,14.18
2022-10-24T00:54:25.037Z,14.16
2022-10-24T00:57:05.438Z,14.13
2022-10-24T00:59:36.301Z,14.08
2022-10-24T01:02:03.804Z,14.10
2022-10-24T01:04:30.706Z,14.09
2022-10-24T01:07:39.337Z,14.07
2022-10-24T01:11:04.611Z,14.07
2022-10-24T01:14:02.699Z,14.11
2022-10-24T01:17:04.865Z,14.12
2022-10-24T01:20:22.762Z,14.10
2022-10-24T01:23:11.092Z,14.10
2022-10-24T01:26:06.375Z,14.11
2022-10-24T01:28:53.579Z,14.13
2022-10-24T01:31:38.846Z,14.14
2022-10-24T01:34:26.214Z,14.16
2022-10-24T01:37:15.017Z,14.15
2022-10-24T01:39:50.287Z,14.14
2022-10-24T01:42:23.988Z,14.12
2022-10-24T01:44:57.469Z,14.14
2022-10-24T01:47:30.769Z,14.14
2022-10-24T01:50:05.796Z,14.12
2022-10-24T01:52:40.015Z,14.12
2022-10-24T01:55:08.924Z,14.12
2022-10-24T01:57:36.167Z,14.08
2022-10-24T02:00:08.040Z,14.08
2022-10-24T02:02:43.226Z,14.09
2022-10-24T02:05:27.395Z,14.08
2022-10-24T02:08:02.749Z,14.10
2022-10-24T02:10:34.731Z,14.14
2022-10-24T02:13:19.405Z,14.14
2022-10-24T02:15:52.471Z,14.13
2022-10-24T02:18:20.338Z,14.11
2022-10-24T02:21:12.703Z,14.09
2022-10-24T02:23:52.118Z,14.11
2022-10-24T02:26:33.486Z,14.12
2022-10-24T02:29:12.114Z,14.15
2022-10-24T02:31:45.916Z,14.19
2022-10-24T02:34:14.883Z,14.22
2022-10-24T02:36:44.772Z,14.25
2022-10-24T02:39:12.604Z,14.24
2022-10-24T02:41:42.559Z,14.27
2022-10-24T02:44:12.625Z,14.28
2022-10-24T02:46:40.773Z,14.29
2022-10-24T02:49:07.947Z,14.32
2022-10-24T02:51:40.850Z,14.34
2022-10-24T02:54:07.946Z,14.33
2022-10-24T02:56:37.126Z,14.35
2022-10-24T02:59:04.114Z,14.37
2022-10-24T03:01:30.997Z,14.35
2022-10-24T03:03:58.049Z,14.34
2022-10-24T03:06:25.090Z,14.32
2022-10-24T03:08:52.023Z,14.31
2022-10-24T03:11:18.851Z,14.34
2022-10-24T03:13:46.011Z,14.39
2022-10-24T03:16:14.153Z,14.40
2022-10-24T03:18:41.670Z,14.29
2022-10-24T03:21:08.639Z,14.27
2022-10-24T03:23:35.713Z,14.19
2022-10-24T03:26:02.470Z,14.20
2022-10-24T03:28:29.519Z,14.29
2022-10-24T03:30:56.393Z,14.33
2022-10-24T03:33:23.407Z,14.33
2022-10-24T03:35:54.103Z,14.38
2022-10-24T03:38:22.885Z,14.40
2022-10-24T03:40:50.470Z,14.42
2022-10-24T03:43:19.444Z,14.44
2022-10-24T03:45:46.212Z,14.43
2022-10-24T03:48:14.037Z,14.39
2022-10-24T03:50:41.054Z,14.43
2022-10-24T03:53:08.006Z,14.44
2022-10-24T03:55:35.009Z,14.45
2022-10-24T03:58:01.923Z,14.48
2022-10-24T04:00:29.252Z,14.49
2022-10-24T04:02:56.649Z,14.51
2022-10-24T04:05:23.429Z,14.51
2022-10-24T04:07:50.487Z,14.51
2022-10-24T04:10:17.405Z,14.53
2022-10-24T04:12:44.443Z,14.57
2022-10-24T04:15:11.537Z,14.55
2022-10-24T04:17:38.601Z,14.51
2022-10-24T04:20:06.381Z,14.49
2022-10-24T04:22:33.756Z,14.47
2022-10-24T04:25:00.472Z,14.46
2022-10-24T04:27:27.699Z,14.46
2022-10-24T04:29:54.434Z,14.47
2022-10-24T04:32:21.299Z,14.46
2022-10-24T04:34:48.014Z,14.49
2022-10-24T04:37:14.954Z,14.45
2022-10-24T04:39:41.823Z,14.45
2022-10-24T04:42:08.859Z,14.41
2022-10-24T04:44:35.574Z,14.44
2022-10-24T04:47:02.657Z,14.43
2022-10-24T04:49:29.465Z,14.43
2022-10-24T04:51:56.477Z,14.44
2022-10-24T04:54:23.252Z,14.47
2022-10-24T04:56:50.133Z,14.46
2022-10-24T04:59:16.956Z,14.49
2022-10-24T05:01:44.039Z,14.52
2022-10-24T05:04:10.748Z,14.52
2022-10-24T05:06:39.295Z,14.53
2022-10-24T05:09:08.332Z,14.55
2022-10-24T05:11:35.488Z,14.57
2022-10-24T05:14:02.561Z,14.59
2022-10-24T05:16:29.582Z,14.61
2022-10-24T05:18:56.376Z,14.62
2022-10-24T05:21:23.315Z,14.63
2022-10-24T05:23:50.065Z,14.63
2022-10-24T05:26:16.972Z,14.65
2022-10-24T05:28:45.094Z,14.67
2022-10-24T05:31:13.559Z,14.67
2022-10-24T05:33:40.333Z,14.66
2022-10-24T05:36:07.619Z,14.68
2022-10-24T05:38:34.362Z,14.70
2022-10-24T05:41:01.228Z,14.73
2022-10-24T05:43:27.962Z,14.73
2022-10-24T05:45:54.869Z,14.74
2022-10-24T05:48:21.517Z,14.75
2022-10-24T05:50:48.390Z,14.77
2022-10-24T05:53:15.145Z,14.78
2022-10-24T05:55:42.075Z,14.79
2022-10-24T05:58:08.772Z,14.82
2022-10-24T06:00:35.716Z,14.84
2022-10-24T06:03:02.484Z,14.84
2022-10-24T06:05:29.832Z,14.86
2022-10-24T06:07:59.370Z,14.87
2022-10-24T06:10:26.365Z,14.88
2022-10-24T06:12:53.074Z,14.90
2022-10-24T06:15:20.043Z,14.90
2022-10-24T06:17:46.898Z,14.91
2022-10-24T06:20:13.885Z,14.93
2022-10-24T06:22:40.913Z,14.94
2022-10-24T06:25:08.281Z,14.94
2022-10-24T06:27:35.060Z,14.95
2022-10-24T06:30:02.123Z,14.97
2022-10-24T06:32:29.079Z,14.99
2022-10-24T06:34:58.217Z,14.99
2022-10-24T06:37:24.946Z,15.02
2022-10-24T06:39:51.925Z,15.04
2022-10-24T06:42:19.122Z,15.06
2022-10-24T06:44:46.066Z,15.08
2022-10-24T06:47:12.885Z,15.09
2022-10-24T06:49:39.912Z,15.11
2022-10-24T06:52:07.062Z,15.13
2022-10-24T06:54:35.412Z,15.17
2022-10-24T06:57:02.542Z,15.22
2022-10-24T06:59:29.624Z,15.24
2022-10-24T07:01:59.320Z,15.28
2022-10-24T07:04:29.029Z,15.32
2022-10-24T07:06:55.871Z,15.35
2022-10-24T07:09:22.806Z,15.39
2022-10-24T07:13:39.352Z,15.37
2022-10-24T07:16:07.755Z,15.42
2022-10-24T07:18:34.923Z,15.45
2022-10-24T07:21:17.874Z,15.47
2022-10-24T07:23:45.222Z,15.50
2022-10-24T07:26:16.663Z,15.53
2022-10-24T07:28:47.921Z,15.55
2022-10-24T07:31:19.267Z,15.58
2022-10-24T07:33:46.415Z,15.59
2022-10-24T07:36:23.902Z,15.63
2022-10-24T07:38:54.372Z,15.65
2022-10-24T07:41:21.925Z,15.67
2022-10-24T07:43:48.828Z,15.70
2022-10-24T07:46:40.793Z,15.72
2022-10-24T07:49:24.777Z,15.76
2022-10-24T07:51:51.759Z,15.78
2022-10-24T07:54:25.775Z,15.82
2022-10-24T07:56:54.180Z,15.86
2022-10-24T07:59:40.704Z,15.87
2022-10-24T08:02:13.935Z,15.89
2022-10-24T08:04:41.401Z,15.92
2022-10-24T08:07:13.620Z,15.91
2022-10-24T08:09:47.029Z,15.93
2022-10-24T08:12:14.657Z,15.95
2022-10-24T08:14:42.198Z,15.98
2022-10-24T08:17:10.280Z,16.01
2022-10-24T08:19:37.213Z,16.04
2022-10-24T08:22:04.498Z,16.07
2022-10-24T08:24:31.351Z,16.08
2022-10-24T08:26:59.677Z,16.11
2022-10-24T08:29:26.792Z,16.14
2022-10-24T08:31:56.840Z,16.18
2022-10-24T08:34:23.802Z,16.19
2022-10-24T08:36:51.287Z,16.20
2022-10-24T08:39:19.103Z,16.25
2022-10-24T08:42:02.272Z,16.26
2022-10-24T08:44:33.192Z,16.28
2022-10-24T08:50:33.592Z,16.35
2022-10-24T08:53:00.657Z,16.38
2022-10-24T08:55:50.499Z,16.41
2022-10-24T08:58:28.655Z,16.45
2022-10-24T09:01:01.640Z,16.47
2022-10-24T09:04:01.856Z,16.53
2022-10-24T09:06:32.412Z,16.55
2022-10-24T09:09:15.550Z,16.60
2022-10-24T09:12:07.520Z,16.66
2022-10-24T09:14:40.867Z,16.72
2022-10-24T09:17:29.521Z,16.71
2022-10-24T09:20:14.929Z,16.76
2022-10-24T09:22:44.277Z,16.79
2022-10-24T09:25:16.855Z,16.84
2022-10-24T09:27:45.169Z,16.88
2022-10-24T09:30:30.032Z,16.94
2022-10-24T09:33:14.682Z,16.96
2022-10-24T09:35:43.281Z,17.01
2022-10-24T09:38:39.802Z,17.06
2022-10-24T09:41:24.088Z,17.12
2022-10-24T09:43:58.460Z,17.16
2022-10-24T09:46:29.715Z,17.20
2022-10-24T09:49:23.470Z,17.22
2022-10-24T09:55:22.416Z,17.24
2022-10-24T09:57:54.493Z,17.26
2022-10-24T10:00:29.711Z,17.29
2022-10-24T10:03:07.250Z,17.33
2022-10-24T10:05:48.998Z,17.37
2022-10-24T10:08:27.493Z,17.41
2022-10-24T10:11:08.821Z,17.44
2022-10-24T10:13:49.877Z,17.46
2022-10-24T10:16:33.028Z,17.49
2022-10-24T10:19:15.961Z,17.49
2022-10-24T10:22:05.596Z,17.50
2022-10-24T10:24:35.504Z,17.52
2022-10-24T10:27:39.554Z,17.54
2022-10-24T10:30:09.953Z,17.53
2022-10-24T10:33:19.045Z,17.53
2022-10-24T10:36:04.503Z,17.55
2022-10-24T10:38:46.651Z,17.56
2022-10-24T10:41:41.458Z,17.56
2022-10-24T10:44:20.826Z,17.59
2022-10-24T10:47:10.230Z,17.61
2022-10-24T10:49:42.566Z,17.65
2022-10-24T10:52:32.089Z,17.66
2022-10-24T10:55:36.298Z,17.64
2022-10-24T10:58:27.289Z,17.64
2022-10-24T11:01:25.858Z,17.63
2022-10-24T11:04:15.156Z,17.61
2022-10-24T11:07:36.218Z,17.61
2022-10-24T11:10:10.930Z,17.58
2022-10-24T11:12:46.301Z,17.53
2022-10-24T11:15:41.795Z,17.47
2022-10-24T11:18:38.963Z,17.45
2022-10-24T11:21:09.983Z,17.43
2022-10-24T11:24:02.096Z,17.43
2022-10-24T11:26:41.238Z,17.50
2022-10-24T11:29:40.512Z,17.53
2022-10-24T11:32:22.583Z,17.56
2022-10-24T11:35:01.870Z,17.59
2022-10-24T11:37:38.717Z,17.60
2022-10-24T11:40:23.240Z,17.68
2022-10-24T11:43:30.639Z,17.76
2022-10-24T11:46:40.005Z,17.86
2022-10-24T11:49:43.756Z,17.88
2022-10-24T11:52:29.019Z,17.95
2022-10-24T11:55:06.105Z,18.03
2022-10-24T11:57:34.604Z,18.10
2022-10-24T12:00:02.126Z,18.13
2022-10-24T12:03:08.416Z,18.14
2022-10-24T12:06:48.620Z,18.16
2022-10-24T12:09:30.792Z,18.21
2022-10-24T12:12:25.645Z,18.19
2022-10-24T12:15:24.477Z,18.21
2022-10-24T12:18:28.275Z,18.21
2022-10-24T12:21:02.472Z,18.19
2022-10-24T12:23:31.631Z,18.15
2022-10-24T12:26:05.960Z,18.11
2022-10-24T12:28:34.302Z,18.08
2022-10-24T12:31:20.939Z,18.05
2022-10-24T12:34:15.970Z,18.01
2022-10-24T12:37:18.656Z,17.99
2022-10-24T12:39:50.375Z,17.98
2022-10-24T12:42:24.103Z,17.94
2022-10-24T12:45:12.767Z,17.92
2022-10-24T12:47:44.372Z,17.93
2022-10-24T12:50:23.376Z,17.87
2022-10-24T12:52:57.714Z,17.82
2022-10-24T12:56:14.279Z,17.79
2022-10-24T12:58:43.423Z,17.73
2022-10-24T13:01:59.919Z,17.66
2022-10-24T13:05:42.178Z,17.56
2022-10-24T13:09:09.136Z,17.49
2022-10-24T13:12:06.713Z,17.46
2022-10-24T13:14:53.179Z,17.46
2022-10-24T13:17:59.909Z,17.43
2022-10-24T13:20:39.739Z,17.41
2022-10-24T13:23:27.775Z,17.38
2022-10-24T13:25:58.807Z,17.36
2022-10-24T13:28:25.660Z,17.33
2022-10-24T13:30:58.745Z,17.31
2022-10-24T13:33:31.835Z,17.31
2022-10-24T13:36:17.999Z,17.28
2022-10-24T13:38:48.585Z,17.28
2022-10-24T13:41:46.669Z,17.23
2022-10-24T13:44:33.236Z,17.19
2022-10-24T13:47:04.081Z,17.13
2022-10-24T13:49:48.295Z,17.12
2022-10-24T13:52:21.199Z,17.09
2022-10-24T13:54:56.792Z,17.02
2022-10-24T13:57:37.954Z,17.05
2022-10-24T14:00:48.593Z,17.04
2022-10-24T14:03:35.466Z,17.00
2022-10-24T14:06:08.405Z,16.99
2022-10-24T14:09:15.105Z,16.94
2022-10-24T14:11:48.608Z,16.94
2022-10-24T14:14:40.102Z,16.97
2022-10-24T14:17:08.581Z,16.96
2022-10-24T14:19:39.234Z,16.94
2022-10-24T14:22:28.051Z,16.95
2022-10-24T14:24:55.912Z,16.95
2022-10-24T14:27:24.320Z,16.93
2022-10-24T14:30:00.131Z,16.92
2022-10-24T14:32:30.928Z,16.91
2022-10-24T14:37:37.297Z,16.91
2022-10-24T14:40:11.840Z,16.90
2022-10-24T14:42:39.402Z,16.91
2022-10-24T14:45:20.980Z,16.90
2022-10-24T14:47:54.792Z,16.89
2022-10-24T14:50:47.183Z,16.85
2022-10-24T14:53:28.433Z,16.84
2022-10-24T14:56:00.084Z,16.87
2022-10-24T14:58:35.870Z,16.85
2022-10-24T15:01:03.898Z,16.79
2022-10-24T15:03:30.993Z,16.82
2022-10-24T15:06:12.516Z,16.74
2022-10-24T15:11:21.891Z,16.77
2022-10-24T15:14:05.881Z,16.75
2022-10-24T15:16:38.995Z,16.75
2022-10-24T15:19:18.126Z,16.75
2022-10-24T15:21:47.280Z,16.73
2022-10-24T15:24:25.002Z,16.72
2022-10-24T15:26:53.134Z,16.73
2022-10-24T15:29:23.251Z,16.68
2022-10-24T15:31:52.185Z,16.67
2022-10-24T15:34:22.890Z,16.66
2022-10-24T15:36:53.092Z,16.67
2022-10-24T15:39:24.638Z,16.68
2022-10-24T15:41:53.377Z,16.66
2022-10-24T15:44:27.851Z,16.67
2022-10-24T15:46:55.326Z,16.64
2022-10-24T15:49:22.755Z,16.65
2022-10-24T15:51:51.264Z,16.63
2022-10-24T15:54:22.402Z,16.65
2022-10-24T15:56:50.550Z,16.63
2022-10-24T15:59:19.966Z,16.66
2022-10-24T16:01:58.346Z,16.63
2022-10-24T16:04:25.350Z,16.63
2022-10-24T16:06:53.215Z,16.65
2022-10-24T16:09:25.133Z,16.63
2022-10-24T16:11:52.201Z,16.63
2022-10-24T16:14:22.959Z,16.66
2022-10-24T16:16:50.033Z,16.66
2022-10-24T16:19:16.930Z,16.64
2022-10-24T16:21:44.238Z,16.63
2022-10-24T16:24:12.965Z,16.62
2022-10-24T16:26:40.997Z,16.64
2022-10-24T16:29:08.025Z,16.68
2022-10-24T16:31:35.676Z,16.67
2022-10-24T16:34:03.187Z,16.65
2022-10-24T16:36:30.261Z,16.64
2022-10-24T16:38:57.063Z,16.65
2022-10-24T16:41:26.282Z,16.62
2022-10-24T16:43:57.859Z,16.60
2022-10-24T16:46:27.725Z,16.58
2022-10-24T16:48:56.355Z,16.59
2022-10-24T16:51:32.259Z,16.56
2022-10-24T16:54:02.023Z,16.55
2022-10-24T16:56:30.179Z,16.53
2022-10-24T16:58:57.551Z,16.54
2022-10-24T17:01:27.192Z,16.53
2022-10-24T17:03:54.306Z,16.53
2022-10-24T17:06:21.282Z,16.52
2022-10-24T17:08:48.396Z,16.51
2022-10-24T17:11:39.897Z,16.47
2022-10-24T17:14:02.626Z,16.46
2022-10-24T17:16:29.718Z,16.44
2022-10-24T17:19:12.322Z,16.43
2022-10-24T17:21:42.862Z,16.41
2022-10-24T17:24:12.480Z,16.41
2022-10-24T17:26:41.491Z,16.38
2022-10-24T17:29:13.842Z,16.38
2022-10-24T17:31:40.976Z,16.41
2022-10-24T17:34:10.223Z,16.40
2022-10-24T17:36:39.193Z,16.40
2022-10-24T17:39:20.685Z,16.39
2022-10-24T17:41:48.132Z,16.39
2022-10-24T17:44:18.080Z,16.38
2022-10-24T17:46:47.339Z,16.38
2022-10-24T17:49:20.771Z,16.34
2022-10-24T17:51:49.310Z,16.36
2022-10-24T17:54:16.884Z,16.39
2022-10-24T17:56:44.161Z,16.39
2022-10-24T17:59:11.162Z,16.40
2022-10-24T18:01:39.014Z,16.41
2022-10-24T18:04:06.407Z,16.43
2022-10-24T18:06:34.684Z,16.44
2022-10-24T18:09:02.609Z,16.44
2022-10-24T18:11:30.536Z,16.45
2022-10-24T18:13:57.904Z,16.46
2022-10-24T18:16:27.403Z,16.43
2022-10-24T18:18:57.056Z,16.40
2022-10-24T18:21:25.761Z,16.38
2022-10-24T18:23:54.089Z,16.38
2022-10-24T18:26:25.749Z,16.35
2022-10-24T18:28:55.723Z,16.33
2022-10-24T18:31:28.719Z,16.29
2022-10-24T18:33:59.244Z,16.27
2022-10-24T18:36:30.487Z,16.22
2022-10-24T18:39:01.757Z,16.20
2022-10-24T18:41:54.817Z,16.22
2022-10-24T18:44:25.241Z,16.22
2022-10-24T18:46:56.599Z,16.22
2022-10-24T18:49:24.472Z,16.24
2022-10-24T18:52:14.802Z,16.20
2022-10-24T18:55:04.577Z,16.19
2022-10-24T18:57:34.560Z,16.15
2022-10-24T19:00:01.572Z,16.14
2022-10-24T19:02:55.550Z,16.13
2022-10-24T19:06:24.288Z,16.11
2022-10-24T19:08:51.953Z,16.10
2022-10-24T19:11:19.246Z,16.12
2022-10-24T19:13:46.666Z,16.12
2022-10-24T19:16:28.588Z,16.04
2022-10-24T19:19:01.395Z,16.10
2022-10-24T19:21:29.003Z,16.11
2022-10-24T19:23:56.131Z,16.11
2022-10-24T19:26:23.007Z,16.10
2022-10-24T19:28:50.559Z,16.11
2022-10-24T19:31:17.549Z,16.04
2022-10-24T19:33:44.899Z,16.12
2022-10-24T19:36:15.574Z,16.16
2022-10-24T19:38:45.574Z,16.17
2022-10-24T19:41:12.792Z,16.15
2022-10-24T19:43:40.109Z,16.20
2022-10-24T19:46:19.280Z,16.26
2022-10-24T19:48:49.489Z,16.24
2022-10-24T19:51:18.926Z,16.24
2022-10-24T19:53:47.446Z,16.29
2022-10-24T19:56:20.168Z,16.30
2022-10-24T19:58:49.847Z,16.34
2022-10-24T20:01:20.739Z,16.34
2022-10-24T20:03:49.919Z,16.36
2022-10-24T20:06:18.215Z,16.35
2022-10-24T20:08:49.794Z,16.32
2022-10-24T20:11:17.526Z,16.34
2022-10-24T20:13:44.513Z,16.27
2022-10-24T20:16:11.626Z,16.31
2022-10-24T20:21:17.807Z,16.32
2022-10-24T20:23:49.174Z,16.33
2022-10-24T20:26:26.027Z,16.28
2022-10-24T20:28:55.947Z,16.29
2022-10-24T20:31:30.040Z,16.30
2022-10-24T20:34:05.183Z,16.30
2022-10-24T20:36:37.913Z,16.32
2022-10-24T20:39:08.855Z,16.26
2022-10-24T20:41:37.314Z,16.29
2022-10-24T20:44:07.099Z,16.28
2022-10-24T20:46:34.690Z,16.29
2022-10-24T20:49:02.551Z,16.27
2022-10-24T20:51:29.590Z,16.26
2022-10-24T20:53:57.645Z,16.27
2022-10-24T20:56:28.648Z,16.27
2022-10-24T20:58:56.617Z,16.25
2022-10-24T21:01:27.711Z,16.24
2022-10-24T21:03:57.252Z,16.22
2022-10-24T21:06:29.055Z,16.19
2022-10-24T21:09:00.147Z,16.21
2022-10-24T21:11:30.306Z,16.22
2022-10-24T21:14:05.869Z,16.23
2022-10-24T21:16:36.156Z,16.23
2022-10-24T21:19:05.067Z,16.23
2022-10-24T21:21:32.341Z,16.23
2022-10-24T21:24:06.920Z,16.22
2022-10-24T21:26:40.112Z,16.21
2022-10-24T21:29:31.745Z,16.19
2022-10-24T21:31:57.059Z,16.18
2022-10-24T21:34:26.735Z,16.17
2022-10-24T21:36:57.406Z,16.14
2022-10-24T21:39:27.310Z,16.15
2022-10-24T21:41:55.568Z,16.12
2022-10-24T21:44:25.669Z,16.11
2022-10-24T21:46:54.426Z,16.10
2022-10-24T21:49:22.022Z,16.13
2022-10-24T21:51:49.493Z,16.11
2022-10-24T21:54:24.352Z,16.04
2022-10-24T21:56:51.754Z,16.01
2022-10-24T21:59:21.105Z,16.00
2022-10-24T22:01:51.231Z,16.00
2022-10-24T22:04:19.157Z,16.00
2022-10-24T22:06:46.586Z,15.99
2022-10-24T22:09:19.600Z,15.97
2022-10-24T22:11:47.108Z,15.95
2022-10-24T22:14:17.317Z,15.95
2022-10-24T22:16:44.542Z,15.93
2022-10-24T22:19:13.179Z,15.94
2022-10-24T22:21:44.567Z,15.91
2022-10-24T22:24:22.303Z,15.91
2022-10-24T22:26:51.231Z,15.93
2022-10-24T22:29:22.898Z,15.94
2022-10-24T22:31:52.102Z,15.95
2022-10-24T22:34:25.416Z,15.99
2022-10-24T22:37:27.428Z,16.00
2022-10-24T22:39:54.927Z,16.04
2022-10-24T22:42:22.149Z,16.06
2022-10-24T22:44:50.973Z,16.06
2022-10-24T22:47:38.962Z,16.06
2022-10-24T22:50:46.814Z,16.05
2022-10-24T22:53:17.578Z,16.05
2022-10-24T22:56:14.991Z,16.02
2022-10-24T22:58:45.318Z,16.01
2022-10-24T23:01:40.410Z,15.98
2022-10-24T23:04:26.114Z,15.97
2022-10-24T23:06:58.175Z,15.97
2022-10-24T23:09:25.021Z,15.95
2022-10-24T23:11:52.729Z,15.92
2022-10-24T23:14:20.095Z,15.91
2022-10-24T23:16:58.876Z,15.90
2022-10-24T23:19:29.769Z,15.89
2022-10-24T23:22:03.476Z,15.85
2022-10-24T23:24:30.550Z,15.84
2022-10-24T23:27:12.605Z,15.82
2022-10-24T23:29:43.490Z,15.80
2022-10-24T23:32:30.237Z,15.77
2022-10-24T23:34:59.298Z,15.76
2022-10-24T23:37:43.352Z,15.75
2022-10-24T23:40:37.018Z,15.75
2022-10-24T23:43:05.090Z,15.71
2022-10-24T23:45:48.861Z,15.70
2022-10-24T23:48:35.086Z,15.68
2022-10-24T23:51:37.133Z,15.69
2022-10-24T23:54:09.891Z,15.66
2022-10-24T23:56:37.324Z,15.63
2022-10-24T23:59:05.409Z,15.65
